createdAt,value
2017-04-21T00:00:02.083Z,22.98
2017-04-21T00:00:30.299Z,22.95
2017-04-21T00:00:58.504Z,22.98
2017-04-21T00:02:09.729Z,22.96
2017-04-21T00:02:38.019Z,22.92
2017-04-21T00:03:06.175Z,22.99
2017-04-21T00:03:34.517Z,22.98
2017-04-21T00:04:02.888Z,22.92
2017-04-21T00:04:31.142Z,22.91
2017-04-21T00:04:59.283Z,22.92
2017-04-21T00:05:27.749Z,22.91
2017-04-21T00:05:55.863Z,22.92
2017-04-21T00:06:24.021Z,22.86
2017-04-21T00:06:52.230Z,22.89
2017-04-21T00:08:03.638Z,22.93
2017-04-21T00:08:31.928Z,22.83
2017-04-21T00:09:00.163Z,22.83
2017-04-21T00:09:28.518Z,22.86
2017-04-21T00:09:56.898Z,22.86
2017-04-21T00:10:25.057Z,22.83
2017-04-21T00:10:53.291Z,22.88
2017-04-21T00:11:21.419Z,22.86
2017-04-21T00:11:49.640Z,22.85
2017-04-21T00:12:17.894Z,22.8
2017-04-21T00:12:46.185Z,22.78
2017-04-21T00:13:57.605Z,22.8
2017-04-21T00:14:25.702Z,22.78
2017-04-21T00:14:54.028Z,22.78
2017-04-21T00:15:22.197Z,22.74
2017-04-21T00:15:50.399Z,22.74
2017-04-21T00:16:18.735Z,22.78
2017-04-21T00:16:46.974Z,22.78
2017-04-21T00:17:15.192Z,22.7
2017-04-21T00:17:43.543Z,22.88
2017-04-21T00:18:11.606Z,22.83
2017-04-21T00:18:40.181Z,22.81
2017-04-21T00:19:51.592Z,22.77
2017-04-21T00:20:19.651Z,22.81
2017-04-21T00:20:47.741Z,22.78
2017-04-21T00:21:16.063Z,22.71
2017-04-21T00:21:44.333Z,22.73
2017-04-21T00:22:12.479Z,22.64
2017-04-21T00:22:40.723Z,22.7
2017-04-21T00:23:08.929Z,22.73
2017-04-21T00:23:37.183Z,22.66
2017-04-21T00:24:05.298Z,22.7
2017-04-21T00:24:33.643Z,22.61
2017-04-21T00:25:45.006Z,22.67
2017-04-21T00:26:13.108Z,22.66
2017-04-21T00:26:41.431Z,22.62
2017-04-21T00:27:09.689Z,22.56
2017-04-21T00:27:38.068Z,22.64
2017-04-21T00:28:06.225Z,22.55
2017-04-21T00:28:34.566Z,22.53
2017-04-21T00:29:02.885Z,22.61
2017-04-21T00:29:31.191Z,22.58
2017-04-21T00:29:59.349Z,22.61
2017-04-21T00:30:27.737Z,22.61
2017-04-21T00:31:39.141Z,22.53
2017-04-21T00:32:07.421Z,22.52
2017-04-21T00:32:35.654Z,22.53
2017-04-21T00:33:03.916Z,22.46
2017-04-21T00:33:32.375Z,22.49
2017-04-21T00:34:00.713Z,22.49
2017-04-21T00:34:28.959Z,22.44
2017-04-21T00:34:57.273Z,22.49
2017-04-21T00:35:25.484Z,22.49
2017-04-21T00:35:53.828Z,22.43
2017-04-21T00:36:22.226Z,22.44
2017-04-21T00:37:33.624Z,22.46
2017-04-21T00:38:01.911Z,22.43
2017-04-21T00:38:30.239Z,22.4
2017-04-21T00:38:58.405Z,22.43
2017-04-21T00:39:26.859Z,22.4
2017-04-21T00:39:55.104Z,22.48
2017-04-21T00:40:23.348Z,22.34
2017-04-21T00:40:51.575Z,22.48
2017-04-21T00:41:19.790Z,22.44
2017-04-21T00:41:48.182Z,22.36
2017-04-21T00:42:16.573Z,22.38
2017-04-21T00:43:27.974Z,22.37
2017-04-21T00:43:56.167Z,22.37
2017-04-21T00:44:24.514Z,22.36
2017-04-21T00:44:52.749Z,22.3
2017-04-21T00:45:21.034Z,22.33
2017-04-21T00:45:49.276Z,22.3
2017-04-21T00:46:17.616Z,22.28
2017-04-21T00:46:45.929Z,22.31
2017-04-21T00:47:14.137Z,22.33
2017-04-21T00:47:42.202Z,22.28
2017-04-21T00:48:10.503Z,22.28
2017-04-21T00:49:21.899Z,22.22
2017-04-21T00:49:50.003Z,22.34
2017-04-21T00:50:18.329Z,22.21
2017-04-21T00:50:46.487Z,22.16
2017-04-21T00:51:14.864Z,22.18
2017-04-21T00:51:43.160Z,22.22
2017-04-21T00:52:11.450Z,22.25
2017-04-21T00:52:39.767Z,22.21
2017-04-21T00:53:08.122Z,22.18
2017-04-21T00:53:36.377Z,22.19
2017-04-21T00:54:04.770Z,22.13
2017-04-21T00:55:16.136Z,22.16
2017-04-21T00:55:44.337Z,22.16
2017-04-21T00:56:12.654Z,22.15
2017-04-21T00:56:40.812Z,22.21
2017-04-21T00:57:09.004Z,22.19
2017-04-21T00:57:37.347Z,22.22
2017-04-21T00:58:05.663Z,22.19
2017-04-21T00:58:33.949Z,22.09
2017-04-21T00:59:02.245Z,22.13
2017-04-21T00:59:30.495Z,22.03
2017-04-21T00:59:58.889Z,22.16
2017-04-21T01:01:10.296Z,22.12
2017-04-21T01:01:38.480Z,22.04
2017-04-21T01:02:06.613Z,22.04
2017-04-21T01:02:34.957Z,22.04
2017-04-21T01:03:03.234Z,22.04
2017-04-21T01:03:31.208Z,22.01
2017-04-21T01:03:59.535Z,22.06
2017-04-21T01:04:27.663Z,22.06
2017-04-21T01:04:55.968Z,22.03
2017-04-21T01:05:24.334Z,22.07
2017-04-21T01:05:52.541Z,22.04
2017-04-21T01:07:03.853Z,21.97
2017-04-21T01:07:32.143Z,22.01
2017-04-21T01:08:00.367Z,21.98
2017-04-21T01:08:28.717Z,22
2017-04-21T01:08:57.078Z,21.96
2017-04-21T01:09:25.412Z,21.94
2017-04-21T01:09:53.756Z,21.98
2017-04-21T01:10:22.070Z,21.94
2017-04-21T01:10:50.368Z,21.91
2017-04-21T01:11:18.674Z,21.98
2017-04-21T01:11:46.926Z,21.94
2017-04-21T01:12:58.287Z,21.91
2017-04-21T01:13:26.420Z,21.88
2017-04-21T01:13:54.639Z,21.84
2017-04-21T01:14:22.884Z,21.85
2017-04-21T01:14:51.074Z,21.73
2017-04-21T01:15:19.317Z,21.78
2017-04-21T01:15:47.601Z,21.77
2017-04-21T01:16:15.788Z,21.82
2017-04-21T01:16:44.070Z,21.8
2017-04-21T01:17:12.370Z,21.75
2017-04-21T01:17:40.644Z,21.75
2017-04-21T01:18:52.030Z,21.73
2017-04-21T01:19:20.321Z,21.62
2017-04-21T01:19:48.550Z,21.69
2017-04-21T01:20:17.038Z,21.6
2017-04-21T01:20:45.375Z,21.63
2017-04-21T01:21:13.693Z,21.74
2017-04-21T01:21:42.026Z,21.71
2017-04-21T01:22:10.342Z,21.69
2017-04-21T01:22:38.678Z,21.66
2017-04-21T01:23:06.823Z,21.66
2017-04-21T01:23:35.167Z,21.58
2017-04-21T01:24:46.522Z,21.56
2017-04-21T01:25:14.675Z,21.53
2017-04-21T01:25:43.002Z,21.59
2017-04-21T01:26:11.351Z,21.63
2017-04-21T01:26:39.631Z,21.6
2017-04-21T01:27:07.783Z,21.6
2017-04-21T01:27:36.116Z,21.59
2017-04-21T01:28:04.249Z,21.58
2017-04-21T01:28:32.564Z,21.59
2017-04-21T01:29:00.912Z,21.65
2017-04-21T01:29:29.150Z,21.59
2017-04-21T01:30:40.460Z,21.53
2017-04-21T01:31:08.745Z,21.56
2017-04-21T01:31:37.073Z,21.53
2017-04-21T01:32:05.331Z,21.48
2017-04-21T01:32:33.525Z,21.55
2017-04-21T01:33:01.778Z,21.44
2017-04-21T01:33:30.114Z,21.51
2017-04-21T01:33:58.422Z,21.59
2017-04-21T01:34:26.495Z,21.45
2017-04-21T01:34:54.797Z,21.48
2017-04-21T01:35:23.140Z,21.53
2017-04-21T01:36:34.540Z,21.53
2017-04-21T01:37:02.804Z,21.43
2017-04-21T01:37:31.011Z,21.48
2017-04-21T01:37:59.165Z,21.53
2017-04-21T01:38:27.543Z,21.44
2017-04-21T01:38:55.792Z,21.43
2017-04-21T01:39:24.100Z,21.48
2017-04-21T01:39:52.280Z,21.47
2017-04-21T01:40:20.552Z,21.47
2017-04-21T01:40:48.888Z,21.48
2017-04-21T01:41:17.239Z,21.45
2017-04-21T01:42:28.600Z,21.45
2017-04-21T01:42:56.889Z,21.5
2017-04-21T01:43:25.217Z,21.47
2017-04-21T01:43:53.472Z,21.37
2017-04-21T01:44:21.731Z,21.4
2017-04-21T01:44:49.864Z,21.41
2017-04-21T01:45:18.077Z,21.41
2017-04-21T01:45:46.260Z,21.32
2017-04-21T01:46:14.464Z,21.37
2017-04-21T01:46:42.785Z,21.35
2017-04-21T01:47:11.178Z,21.3
2017-04-21T01:48:22.581Z,21.3
2017-04-21T01:48:50.823Z,21.34
2017-04-21T01:49:19.141Z,21.4
2017-04-21T01:49:47.214Z,21.32
2017-04-21T01:50:15.396Z,21.3
2017-04-21T01:50:43.704Z,21.25
2017-04-21T01:51:12.013Z,21.25
2017-04-21T01:51:40.281Z,21.25
2017-04-21T01:52:08.379Z,21.28
2017-04-21T01:52:36.726Z,21.25
2017-04-21T01:53:05.008Z,21.3
2017-04-21T01:54:16.414Z,21.23
2017-04-21T01:54:44.662Z,21.26
2017-04-21T01:55:12.941Z,21.16
2017-04-21T01:55:41.195Z,21.14
2017-04-21T01:56:09.568Z,21.19
2017-04-21T01:56:37.721Z,21.19
2017-04-21T01:57:06.061Z,21.18
2017-04-21T01:57:34.384Z,21.08
2017-04-21T01:58:02.601Z,21.14
2017-04-21T01:58:30.844Z,21.18
2017-04-21T01:58:59.241Z,21.1
2017-04-21T02:00:10.637Z,21.13
2017-04-21T02:00:38.926Z,21.13
2017-04-21T02:01:07.254Z,21.05
2017-04-21T02:01:35.505Z,21.07
2017-04-21T02:02:03.797Z,21.03
2017-04-21T02:02:32.141Z,21
2017-04-21T02:03:00.376Z,21.01
2017-04-21T02:03:28.695Z,21.03
2017-04-21T02:03:57.018Z,21.05
2017-04-21T02:04:25.353Z,21.04
2017-04-21T02:04:53.748Z,20.97
2017-04-21T02:06:05.154Z,21.03
2017-04-21T02:06:33.365Z,21
2017-04-21T02:07:01.691Z,21
2017-04-21T02:07:30.036Z,20.93
2017-04-21T02:07:58.345Z,21.03
2017-04-21T02:08:26.514Z,20.97
2017-04-21T02:08:54.916Z,20.98
2017-04-21T02:09:23.050Z,21
2017-04-21T02:09:51.266Z,20.98
2017-04-21T02:10:19.610Z,20.98
2017-04-21T02:10:48.003Z,21
2017-04-21T02:11:59.410Z,20.92
2017-04-21T02:12:27.602Z,21.01
2017-04-21T02:12:55.930Z,21.04
2017-04-21T02:13:24.186Z,20.9
2017-04-21T02:13:52.562Z,21.01
2017-04-21T02:14:20.902Z,20.95
2017-04-21T02:14:49.234Z,21.05
2017-04-21T02:15:17.552Z,20.97
2017-04-21T02:15:45.861Z,20.98
2017-04-21T02:16:14.109Z,21.04
2017-04-21T02:16:42.542Z,20.98
2017-04-21T02:17:53.953Z,21.01
2017-04-21T02:18:22.242Z,20.92
2017-04-21T02:18:50.573Z,20.9
2017-04-21T02:19:18.918Z,20.97
2017-04-21T02:19:47.206Z,20.83
2017-04-21T02:20:15.718Z,20.85
2017-04-21T02:20:44.050Z,20.83
2017-04-21T02:21:12.505Z,20.86
2017-04-21T02:21:40.720Z,20.89
2017-04-21T02:22:08.969Z,20.85
2017-04-21T02:22:37.362Z,20.85
2017-04-21T02:23:48.768Z,20.86
2017-04-21T02:24:17.057Z,20.88
2017-04-21T02:24:45.292Z,20.86
2017-04-21T02:25:13.642Z,20.89
2017-04-21T02:25:41.918Z,20.9
2017-04-21T02:26:10.257Z,20.88
2017-04-21T02:26:38.497Z,20.85
2017-04-21T02:27:06.809Z,20.86
2017-04-21T02:27:35.021Z,20.85
2017-04-21T02:28:03.367Z,20.75
2017-04-21T02:28:31.764Z,20.88
2017-04-21T02:29:43.169Z,20.75
2017-04-21T02:30:11.366Z,20.85
2017-04-21T02:30:39.498Z,20.73
2017-04-21T02:31:07.756Z,20.82
2017-04-21T02:31:36.130Z,20.8
2017-04-21T02:32:04.471Z,20.79
2017-04-21T02:32:32.803Z,20.8
2017-04-21T02:33:01.124Z,20.79
2017-04-21T02:33:29.337Z,20.73
2017-04-21T02:33:57.503Z,20.74
2017-04-21T02:34:25.897Z,20.74
2017-04-21T02:35:37.298Z,20.77
2017-04-21T02:36:05.665Z,20.74
2017-04-21T02:36:33.899Z,20.75
2017-04-21T02:37:02.065Z,20.75
2017-04-21T02:37:30.457Z,20.73
2017-04-21T02:37:58.683Z,20.73
2017-04-21T02:38:26.831Z,20.79
2017-04-21T02:38:55.058Z,20.75
2017-04-21T02:39:23.275Z,20.77
2017-04-21T02:39:51.522Z,20.68
2017-04-21T02:40:19.919Z,20.79
2017-04-21T02:41:31.320Z,20.73
2017-04-21T02:41:59.604Z,20.75
2017-04-21T02:42:27.740Z,20.75
2017-04-21T02:42:55.900Z,20.7
2017-04-21T02:43:24.282Z,20.79
2017-04-21T02:43:52.618Z,20.74
2017-04-21T02:44:20.952Z,20.65
2017-04-21T02:44:49.262Z,20.75
2017-04-21T02:45:17.674Z,20.65
2017-04-21T02:45:46.016Z,20.73
2017-04-21T02:46:14.255Z,20.73
2017-04-21T02:47:25.662Z,20.71
2017-04-21T02:47:53.946Z,20.68
2017-04-21T02:48:22.275Z,20.64
2017-04-21T02:48:50.630Z,20.67
2017-04-21T02:49:18.821Z,20.61
2017-04-21T02:49:47.066Z,20.63
2017-04-21T02:50:15.400Z,20.63
2017-04-21T02:50:43.716Z,20.61
2017-04-21T02:51:12.025Z,20.58
2017-04-21T02:51:40.177Z,20.58
2017-04-21T02:52:08.708Z,20.63
2017-04-21T02:53:20.117Z,20.6
2017-04-21T02:53:48.313Z,20.6
2017-04-21T02:54:16.819Z,20.64
2017-04-21T02:54:45.072Z,20.6
2017-04-21T02:55:13.447Z,20.58
2017-04-21T02:55:41.600Z,20.56
2017-04-21T02:56:09.839Z,20.58
2017-04-21T02:56:38.153Z,20.63
2017-04-21T02:57:06.456Z,20.58
2017-04-21T02:57:34.802Z,20.56
2017-04-21T02:58:03.108Z,20.64
2017-04-21T02:59:14.508Z,20.53
2017-04-21T02:59:42.709Z,20.65
2017-04-21T03:00:11.393Z,20.65
2017-04-21T03:00:39.742Z,20.65
2017-04-21T03:01:07.975Z,20.61
2017-04-21T03:01:36.222Z,20.58
2017-04-21T03:02:04.557Z,20.53
2017-04-21T03:02:32.871Z,20.56
2017-04-21T03:03:00.994Z,20.61
2017-04-21T03:03:29.246Z,20.55
2017-04-21T03:03:57.640Z,20.61
2017-04-21T03:05:09.045Z,20.56
2017-04-21T03:05:37.352Z,20.55
2017-04-21T03:06:05.589Z,20.55
2017-04-21T03:06:33.841Z,20.56
2017-04-21T03:07:02.219Z,20.55
2017-04-21T03:07:30.559Z,20.55
2017-04-21T03:07:58.911Z,20.56
2017-04-21T03:08:27.227Z,20.61
2017-04-21T03:08:55.590Z,20.58
2017-04-21T03:09:23.933Z,20.5
2017-04-21T03:09:52.328Z,20.56
2017-04-21T03:11:03.729Z,20.49
2017-04-21T03:11:31.928Z,20.53
2017-04-21T03:12:00.255Z,20.5
2017-04-21T03:12:28.511Z,20.61
2017-04-21T03:12:56.793Z,20.52
2017-04-21T03:13:24.943Z,20.49
2017-04-21T03:13:53.273Z,20.53
2017-04-21T03:14:21.402Z,20.5
2017-04-21T03:14:49.631Z,20.5
2017-04-21T03:15:17.964Z,20.49
2017-04-21T03:15:46.269Z,20.49
2017-04-21T03:16:57.679Z,20.55
2017-04-21T03:17:25.964Z,20.52
2017-04-21T03:17:54.294Z,20.49
2017-04-21T03:18:22.643Z,20.5
2017-04-21T03:18:51.023Z,20.49
2017-04-21T03:19:19.363Z,20.5
2017-04-21T03:19:47.695Z,20.46
2017-04-21T03:20:16.011Z,20.36
2017-04-21T03:20:44.316Z,20.39
2017-04-21T03:21:12.567Z,20.42
2017-04-21T03:21:40.863Z,20.41
2017-04-21T03:22:52.088Z,20.37
2017-04-21T03:23:20.288Z,20.34
2017-04-21T03:23:48.616Z,20.46
2017-04-21T03:24:16.963Z,20.48
2017-04-21T03:24:45.152Z,20.39
2017-04-21T03:25:13.307Z,20.37
2017-04-21T03:25:41.639Z,20.27
2017-04-21T03:26:09.973Z,20.48
2017-04-21T03:26:38.282Z,20.36
2017-04-21T03:27:06.627Z,20.44
2017-04-21T03:27:34.932Z,20.41
2017-04-21T03:28:46.342Z,20.27
2017-04-21T03:29:14.536Z,20.33
2017-04-21T03:29:42.858Z,20.3
2017-04-21T03:30:11.110Z,20.29
2017-04-21T03:30:39.501Z,20.26
2017-04-21T03:31:07.650Z,20.34
2017-04-21T03:31:35.981Z,20.32
2017-04-21T03:32:04.204Z,20.23
2017-04-21T03:32:32.514Z,20.33
2017-04-21T03:33:00.857Z,20.34
2017-04-21T03:33:29.164Z,20.32
2017-04-21T03:34:40.561Z,20.29
2017-04-21T03:35:08.849Z,20.32
2017-04-21T03:35:37.171Z,20.3
2017-04-21T03:36:05.332Z,20.26
2017-04-21T03:36:33.616Z,20.33
2017-04-21T03:37:01.951Z,20.27
2017-04-21T03:37:30.281Z,20.33
2017-04-21T03:37:58.506Z,20.32
2017-04-21T03:38:26.813Z,20.26
2017-04-21T03:38:55.151Z,20.26
2017-04-21T03:39:23.541Z,20.34
2017-04-21T03:40:34.944Z,20.3
2017-04-21T03:41:03.145Z,20.19
2017-04-21T03:41:31.385Z,20.23
2017-04-21T03:41:59.732Z,20.23
2017-04-21T03:42:28.017Z,20.23
2017-04-21T03:42:56.259Z,20.19
2017-04-21T03:43:24.599Z,20.19
2017-04-21T03:43:52.913Z,20.23
2017-04-21T03:44:21.429Z,20.25
2017-04-21T03:44:49.771Z,20.19
2017-04-21T03:45:18.170Z,20.22
2017-04-21T03:46:29.482Z,20.14
2017-04-21T03:46:57.673Z,20.19
2017-04-21T03:47:25.904Z,20.17
2017-04-21T03:47:54.162Z,20.19
2017-04-21T03:48:22.446Z,20.17
2017-04-21T03:48:50.692Z,20.17
2017-04-21T03:49:19.025Z,20.14
2017-04-21T03:49:47.248Z,20.19
2017-04-21T03:50:15.466Z,20.15
2017-04-21T03:50:43.619Z,20.15
2017-04-21T03:51:11.890Z,20.18
2017-04-21T03:52:23.204Z,20.19
2017-04-21T03:52:51.490Z,20.14
2017-04-21T03:53:19.817Z,20.15
2017-04-21T03:53:48.163Z,20.18
2017-04-21T03:54:16.360Z,20.19
2017-04-21T03:54:44.694Z,20.18
2017-04-21T03:55:13.026Z,20.15
2017-04-21T03:55:41.317Z,20.11
2017-04-21T03:56:09.533Z,20.11
2017-04-21T03:56:37.684Z,20.11
2017-04-21T03:57:06.083Z,20.08
2017-04-21T03:58:17.492Z,20.14
2017-04-21T03:58:45.686Z,20.12
2017-04-21T03:59:14.009Z,20.09
2017-04-21T03:59:42.169Z,20.12
2017-04-21T04:00:10.360Z,20.07
2017-04-21T04:00:38.604Z,20.04
2017-04-21T04:01:06.934Z,20.05
2017-04-21T04:01:35.250Z,20.04
2017-04-21T04:02:03.458Z,20.02
2017-04-21T04:02:31.716Z,20
2017-04-21T04:03:00.112Z,20
2017-04-21T04:04:11.563Z,19.99
2017-04-21T04:04:39.847Z,19.94
2017-04-21T04:05:08.174Z,19.99
2017-04-21T04:05:36.425Z,19.99
2017-04-21T04:06:04.519Z,19.96
2017-04-21T04:06:32.764Z,20
2017-04-21T04:07:01.162Z,19.96
2017-04-21T04:07:29.481Z,20
2017-04-21T04:07:57.729Z,19.96
2017-04-21T04:08:25.898Z,20
2017-04-21T04:08:54.183Z,20.05
2017-04-21T04:10:05.592Z,20.07
2017-04-21T04:10:33.801Z,20.04
2017-04-21T04:11:02.238Z,20.04
2017-04-21T04:11:30.436Z,20
2017-04-21T04:11:58.847Z,19.96
2017-04-21T04:12:26.989Z,20.05
2017-04-21T04:12:55.240Z,19.99
2017-04-21T04:13:23.576Z,20.02
2017-04-21T04:13:51.938Z,20
2017-04-21T04:14:20.207Z,20
2017-04-21T04:14:48.635Z,19.99
2017-04-21T04:16:00.050Z,19.96
2017-04-21T04:16:28.353Z,19.94
2017-04-21T04:16:56.781Z,19.94
2017-04-21T04:17:25.073Z,19.94
2017-04-21T04:17:53.300Z,19.93
2017-04-21T04:18:21.631Z,19.96
2017-04-21T04:18:49.888Z,19.94
2017-04-21T04:19:18.228Z,19.97
2017-04-21T04:19:46.597Z,19.96
2017-04-21T04:20:14.764Z,19.94
2017-04-21T04:20:43.131Z,19.89
2017-04-21T04:21:54.542Z,19.94
2017-04-21T04:22:22.771Z,19.96
2017-04-21T04:22:51.188Z,19.99
2017-04-21T04:23:19.385Z,19.94
2017-04-21T04:23:47.704Z,19.94
2017-04-21T04:24:16.038Z,19.92
2017-04-21T04:24:44.286Z,20.02
2017-04-21T04:25:12.536Z,19.89
2017-04-21T04:25:40.895Z,19.94
2017-04-21T04:26:09.306Z,20
2017-04-21T04:26:37.730Z,19.99
2017-04-21T04:27:49.235Z,19.97
2017-04-21T04:28:17.537Z,19.93
2017-04-21T04:28:45.873Z,19.89
2017-04-21T04:29:14.171Z,19.9
2017-04-21T04:29:42.706Z,19.92
2017-04-21T04:30:11.043Z,19.84
2017-04-21T04:30:39.411Z,19.92
2017-04-21T04:31:07.561Z,19.92
2017-04-21T04:31:35.928Z,19.89
2017-04-21T04:32:04.280Z,19.89
2017-04-21T04:32:32.611Z,19.92
2017-04-21T04:33:43.841Z,19.86
2017-04-21T04:34:12.053Z,19.87
2017-04-21T04:34:40.482Z,19.93
2017-04-21T04:35:08.682Z,19.89
2017-04-21T04:35:37.096Z,19.94
2017-04-21T04:36:05.427Z,19.89
2017-04-21T04:36:33.683Z,19.92
2017-04-21T04:37:02.023Z,19.87
2017-04-21T04:37:30.203Z,19.86
2017-04-21T04:37:58.566Z,19.93
2017-04-21T04:38:27.179Z,19.87
2017-04-21T04:39:38.591Z,19.9
2017-04-21T04:40:06.800Z,19.92
2017-04-21T04:40:35.235Z,19.92
2017-04-21T04:41:03.344Z,19.89
2017-04-21T04:41:31.567Z,19.92
2017-04-21T04:41:59.812Z,19.86
2017-04-21T04:42:28.069Z,19.87
2017-04-21T04:42:56.401Z,19.84
2017-04-21T04:43:24.788Z,19.92
2017-04-21T04:43:53.151Z,19.9
2017-04-21T04:44:21.481Z,19.99
2017-04-21T04:45:32.889Z,19.9
2017-04-21T04:46:01.187Z,19.87
2017-04-21T04:46:29.622Z,19.96
2017-04-21T04:46:57.912Z,19.94
2017-04-21T04:47:26.326Z,19.89
2017-04-21T04:47:54.669Z,19.92
2017-04-21T04:48:22.830Z,19.94
2017-04-21T04:48:50.984Z,19.9
2017-04-21T04:49:19.350Z,19.9
2017-04-21T04:49:47.713Z,19.9
2017-04-21T04:50:16.053Z,19.84
2017-04-21T04:51:27.367Z,19.86
2017-04-21T04:51:55.574Z,19.79
2017-04-21T04:52:23.997Z,19.92
2017-04-21T04:52:52.291Z,19.79
2017-04-21T04:53:20.610Z,19.82
2017-04-21T04:53:48.942Z,19.9
2017-04-21T04:54:17.107Z,19.79
2017-04-21T04:54:45.446Z,19.84
2017-04-21T04:55:13.808Z,19.87
2017-04-21T04:55:42.075Z,19.87
2017-04-21T04:56:10.505Z,19.81
2017-04-21T04:57:21.833Z,19.78
2017-04-21T04:57:50.043Z,19.84
2017-04-21T04:58:18.483Z,19.84
2017-04-21T04:58:46.775Z,19.81
2017-04-21T04:59:15.092Z,19.89
2017-04-21T04:59:43.414Z,19.79
2017-04-21T05:00:11.670Z,19.82
2017-04-21T05:00:40.011Z,19.84
2017-04-21T05:01:08.378Z,19.84
2017-04-21T05:01:36.740Z,19.86
2017-04-21T05:02:05.165Z,19.84
2017-04-21T05:03:16.397Z,19.79
2017-04-21T05:03:44.605Z,19.82
2017-04-21T05:04:13.044Z,19.84
2017-04-21T05:04:41.432Z,19.84
2017-04-21T05:05:09.750Z,19.87
2017-04-21T05:05:38.087Z,19.86
2017-04-21T05:06:06.341Z,19.82
2017-04-21T05:06:34.676Z,19.81
2017-04-21T05:07:02.949Z,19.79
2017-04-21T05:07:31.314Z,19.78
2017-04-21T05:07:59.644Z,19.82
2017-04-21T05:09:11.052Z,19.84
2017-04-21T05:09:39.264Z,19.84
2017-04-21T05:10:07.699Z,19.87
2017-04-21T05:10:35.897Z,19.79
2017-04-21T05:11:04.213Z,19.78
2017-04-21T05:11:32.362Z,19.87
2017-04-21T05:12:00.711Z,19.84
2017-04-21T05:12:28.952Z,19.82
2017-04-21T05:12:57.319Z,19.78
2017-04-21T05:13:25.673Z,19.78
2017-04-21T05:13:54.006Z,19.79
2017-04-21T05:15:05.420Z,19.84
2017-04-21T05:15:33.538Z,19.77
2017-04-21T05:16:01.970Z,19.68
2017-04-21T05:16:30.265Z,19.71
2017-04-21T05:16:58.678Z,19.74
2017-04-21T05:17:26.912Z,19.72
2017-04-21T05:17:55.071Z,19.72
2017-04-21T05:18:23.407Z,19.72
2017-04-21T05:18:51.768Z,19.72
2017-04-21T05:19:20.128Z,19.75
2017-04-21T05:19:48.560Z,19.78
2017-04-21T05:20:59.784Z,19.75
2017-04-21T05:21:28.085Z,19.72
2017-04-21T05:21:56.338Z,19.7
2017-04-21T05:22:24.449Z,19.71
2017-04-21T05:22:52.812Z,19.72
2017-04-21T05:23:21.145Z,19.7
2017-04-21T05:23:49.395Z,19.7
2017-04-21T05:24:17.635Z,19.64
2017-04-21T05:24:45.909Z,19.71
2017-04-21T05:25:14.175Z,19.59
2017-04-21T05:25:42.411Z,19.6
2017-04-21T05:26:53.726Z,19.57
2017-04-21T05:27:21.944Z,19.63
2017-04-21T05:27:50.379Z,19.62
2017-04-21T05:28:18.584Z,19.56
2017-04-21T05:28:46.906Z,19.67
2017-04-21T05:29:15.239Z,19.6
2017-04-21T05:29:43.518Z,19.6
2017-04-21T05:30:11.767Z,19.57
2017-04-21T05:30:40.132Z,19.63
2017-04-21T05:31:08.393Z,19.57
2017-04-21T05:31:36.631Z,19.6
2017-04-21T05:32:47.949Z,19.62
2017-04-21T05:33:16.248Z,19.6
2017-04-21T05:33:44.684Z,19.63
2017-04-21T05:34:12.796Z,19.59
2017-04-21T05:34:41.113Z,19.6
2017-04-21T05:35:09.442Z,19.59
2017-04-21T05:35:37.788Z,19.62
2017-04-21T05:36:06.033Z,19.62
2017-04-21T05:36:34.311Z,19.62
2017-04-21T05:37:02.578Z,19.59
2017-04-21T05:37:31.004Z,19.63
2017-04-21T05:38:42.413Z,19.6
2017-04-21T05:39:10.623Z,19.57
2017-04-21T05:39:39.057Z,19.62
2017-04-21T05:40:07.354Z,19.63
2017-04-21T05:40:35.769Z,19.64
2017-04-21T05:41:04.105Z,19.62
2017-04-21T05:41:32.449Z,19.62
2017-04-21T05:42:00.781Z,19.6
2017-04-21T05:42:29.053Z,19.6
2017-04-21T05:42:57.412Z,19.59
2017-04-21T05:43:25.744Z,19.6
2017-04-21T05:44:37.059Z,19.62
2017-04-21T05:45:05.172Z,19.57
2017-04-21T05:45:33.607Z,19.71
2017-04-21T05:46:01.716Z,19.6
2017-04-21T05:46:30.128Z,19.64
2017-04-21T05:46:58.363Z,19.63
2017-04-21T05:47:26.617Z,19.59
2017-04-21T05:47:54.955Z,19.6
2017-04-21T05:48:23.214Z,19.59
2017-04-21T05:48:51.482Z,19.63
2017-04-21T05:49:19.904Z,19.68
2017-04-21T05:50:31.031Z,19.62
2017-04-21T05:50:59.245Z,19.57
2017-04-21T05:51:27.681Z,19.64
2017-04-21T05:51:55.885Z,19.62
2017-04-21T05:52:24.201Z,19.63
2017-04-21T05:52:52.531Z,19.62
2017-04-21T05:53:20.693Z,19.6
2017-04-21T05:53:49.037Z,19.6
2017-04-21T05:54:17.403Z,19.6
2017-04-21T05:54:45.678Z,19.57
2017-04-21T05:55:14.101Z,19.59
2017-04-21T05:56:25.509Z,19.59
2017-04-21T05:56:53.810Z,19.62
2017-04-21T05:57:22.244Z,19.6
2017-04-21T05:57:50.535Z,19.56
2017-04-21T05:58:18.849Z,19.59
2017-04-21T05:58:47.179Z,19.64
2017-04-21T05:59:15.436Z,19.52
2017-04-21T05:59:43.685Z,19.56
2017-04-21T06:00:11.858Z,19.6
2017-04-21T06:00:40.030Z,19.5
2017-04-21T06:01:08.363Z,19.54
2017-04-21T06:02:19.668Z,19.57
2017-04-21T06:02:47.878Z,19.54
2017-04-21T06:03:16.313Z,19.59
2017-04-21T06:03:44.648Z,19.5
2017-04-21T06:04:12.963Z,19.56
2017-04-21T06:04:41.270Z,19.5
2017-04-21T06:05:09.518Z,19.53
2017-04-21T06:05:37.582Z,19.5
2017-04-21T06:06:05.939Z,19.59
2017-04-21T06:06:34.294Z,19.52
2017-04-21T06:07:02.534Z,19.54
2017-04-21T06:08:13.854Z,19.56
2017-04-21T06:08:42.064Z,19.54
2017-04-21T06:09:10.503Z,19.53
2017-04-21T06:09:38.702Z,19.53
2017-04-21T06:10:07.110Z,19.52
2017-04-21T06:10:35.281Z,19.56
2017-04-21T06:11:03.659Z,19.54
2017-04-21T06:11:32.012Z,19.56
2017-04-21T06:12:00.377Z,19.54
2017-04-21T06:12:28.543Z,19.53
2017-04-21T06:12:56.873Z,19.52
2017-04-21T06:14:08.191Z,19.54
2017-04-21T06:14:36.318Z,19.54
2017-04-21T06:15:04.756Z,19.52
2017-04-21T06:15:32.958Z,19.49
2017-04-21T06:16:01.295Z,19.57
2017-04-21T06:16:29.445Z,19.5
2017-04-21T06:16:57.791Z,19.6
2017-04-21T06:17:26.164Z,19.49
2017-04-21T06:17:54.528Z,19.54
2017-04-21T06:18:22.816Z,19.53
2017-04-21T06:18:51.055Z,19.59
2017-04-21T06:20:02.463Z,19.62
2017-04-21T06:20:30.766Z,19.54
2017-04-21T06:20:59.201Z,19.6
2017-04-21T06:21:27.503Z,19.57
2017-04-21T06:21:55.841Z,19.59
2017-04-21T06:22:24.080Z,19.57
2017-04-21T06:22:52.424Z,19.59
2017-04-21T06:23:20.581Z,19.62
2017-04-21T06:23:48.952Z,19.7
2017-04-21T06:24:17.216Z,19.74
2017-04-21T06:24:45.550Z,19.79
2017-04-21T06:25:56.962Z,19.78
2017-04-21T06:26:25.262Z,19.74
2017-04-21T06:26:53.604Z,19.74
2017-04-21T06:27:21.805Z,19.79
2017-04-21T06:27:50.122Z,19.79
2017-04-21T06:28:18.399Z,19.77
2017-04-21T06:28:46.765Z,19.79
2017-04-21T06:29:15.029Z,19.78
2017-04-21T06:29:43.370Z,19.75
2017-04-21T06:30:11.726Z,19.77
2017-04-21T06:30:40.023Z,19.82
2017-04-21T06:31:51.336Z,19.89
2017-04-21T06:32:19.437Z,19.86
2017-04-21T06:32:47.765Z,19.79
2017-04-21T06:33:16.116Z,19.81
2017-04-21T06:33:44.447Z,19.87
2017-04-21T06:34:12.788Z,19.84
2017-04-21T06:34:41.159Z,19.84
2017-04-21T06:35:09.521Z,19.79
2017-04-21T06:35:37.766Z,19.79
2017-04-21T06:36:05.942Z,19.84
2017-04-21T06:36:34.249Z,19.9
2017-04-21T06:37:45.632Z,19.87
2017-04-21T06:38:13.981Z,19.89
2017-04-21T06:38:42.278Z,19.92
2017-04-21T06:39:10.486Z,19.9
2017-04-21T06:39:38.778Z,19.9
2017-04-21T06:40:07.007Z,19.92
2017-04-21T06:40:35.183Z,19.84
2017-04-21T06:41:03.533Z,19.9
2017-04-21T06:41:31.862Z,19.84
2017-04-21T06:42:00.271Z,19.92
2017-04-21T06:42:28.564Z,19.79
2017-04-21T06:43:39.824Z,19.9
2017-04-21T06:44:08.150Z,19.87
2017-04-21T06:44:36.390Z,19.87
2017-04-21T06:45:04.576Z,19.9
2017-04-21T06:45:32.928Z,19.79
2017-04-21T06:46:01.157Z,19.82
2017-04-21T06:46:29.490Z,19.9
2017-04-21T06:46:57.737Z,19.84
2017-04-21T06:47:26.093Z,19.92
2017-04-21T06:47:54.250Z,19.79
2017-04-21T06:48:22.653Z,19.86
2017-04-21T06:49:34.011Z,19.87
2017-04-21T06:50:02.339Z,19.81
2017-04-21T06:50:30.553Z,19.84
2017-04-21T06:50:58.720Z,19.79
2017-04-21T06:51:27.005Z,19.84
2017-04-21T06:51:55.333Z,19.81
2017-04-21T06:52:23.696Z,19.78
2017-04-21T06:52:52.050Z,19.81
2017-04-21T06:53:20.194Z,19.79
2017-04-21T06:53:48.451Z,19.86
2017-04-21T06:54:16.744Z,19.84
2017-04-21T06:55:28.104Z,19.78
2017-04-21T06:55:56.436Z,19.79
2017-04-21T06:56:24.645Z,19.81
2017-04-21T06:56:52.836Z,19.74